Map

Track Data

SID SEASON NUMBER BASIN SUBBASIN NAME ISO_TIME NATURE LAT LON WMO_WIND WMO_PRES WMO_AGENCY TRACK_TYPE DIST2LAND LANDFALL IFLAG USA_AGENCY USA_ATCF_ID USA_LAT USA_LON USA_RECORD USA_STATUS USA_WIND USA_PRES USA_SSHS USA_R34_NE USA_R34_SE USA_R34_SW USA_R34_NW USA_R50_NE USA_R50_SE USA_R50_SW USA_R50_NW USA_R64_NE USA_R64_SE USA_R64_SW USA_R64_NW USA_POCI USA_ROCI USA_RMW USA_EYE TOKYO_LAT TOKYO_LON TOKYO_GRADE TOKYO_WIND TOKYO_PRES TOKYO_R50_DIR TOKYO_R50_LONG TOKYO_R50_SHORT TOKYO_R30_DIR TOKYO_R30_LONG TOKYO_R30_SHORT TOKYO_LAND CMA_LAT CMA_LON CMA_CAT CMA_WIND CMA_PRES HKO_LAT HKO_LON HKO_CAT HKO_WIND HKO_PRES NEWDELHI_LAT NEWDELHI_LON NEWDELHI_GRADE NEWDELHI_WIND NEWDELHI_PRES NEWDELHI_CI NEWDELHI_DP NEWDELHI_POCI REUNION_LAT REUNION_LON REUNION_TYPE REUNION_WIND REUNION_PRES REUNION_TNUM REUNION_CI REUNION_RMW REUNION_R34_NE REUNION_R34_SE REUNION_R34_SW REUNION_R34_NW REUNION_R50_NE REUNION_R50_SE REUNION_R50_SW REUNION_R50_NW REUNION_R64_NE REUNION_R64_SE REUNION_R64_SW REUNION_R64_NW BOM_LAT BOM_LON BOM_TYPE BOM_WIND BOM_PRES BOM_TNUM BOM_CI BOM_RMW BOM_R34_NE BOM_R34_SE BOM_R34_SW BOM_R34_NW BOM_R50_NE BOM_R50_SE BOM_R50_SW BOM_R50_NW BOM_R64_NE BOM_R64_SE BOM_R64_SW BOM_R64_NW BOM_ROCI BOM_POCI BOM_EYE BOM_POS_METHOD BOM_PRES_METHOD NADI_LAT NADI_LON NADI_CAT NADI_WIND NADI_PRES WELLINGTON_LAT WELLINGTON_LON WELLINGTON_WIND WELLINGTON_PRES DS824_LAT DS824_LON DS824_STAGE DS824_WIND DS824_PRES TD9636_LAT TD9636_LON TD9636_STAGE TD9636_WIND TD9636_PRES TD9635_LAT TD9635_LON TD9635_WIND TD9635_PRES TD9635_ROCI NEUMANN_LAT NEUMANN_LON NEUMANN_CLASS NEUMANN_WIND NEUMANN_PRES MLC_LAT MLC_LON MLC_CLASS MLC_WIND MLC_PRES USA_GUST BOM_GUST BOM_GUST_PER REUNION_GUST REUNION_GUST_PER USA_SEAHGT USA_SEARAD_NE USA_SEARAD_SE USA_SEARAD_SW USA_SEARAD_NW STORM_SPEED STORM_DIR
1970204N14260 1970 69 EP MM IONE-2 1970-07-22 12:00:00 TS 13.6000 -100.400 25 hurdat_epa main 355 355 O________OO___ hurdat_epa EP081970 13.6000 -100.400 TD 25 -1 13.6000 -100.400 TC 25 13.6000 -100.400 1 13 274
1970204N14260 1970 69 EP MM IONE-2 1970-07-22 15:00:00 TS 13.6449 -101.054 main 378 367 P________PP___ EP081970 13.6429 -101.060 TD 25 -1 13.6429 -101.060 TC 25 13.6528 -101.031 1 13 275
1970204N14260 1970 69 EP MM IONE-2 1970-07-22 18:00:00 TS 13.7028 -101.692 25 hurdat_epa main 398 398 O________OP___ hurdat_epa EP081970 13.7000 -101.700 TD 25 -1 13.7000 -101.700 TC 25 13.7139 -101.660 1 12 277
1970204N14260 1970 69 EP MM IONE-2 1970-07-22 21:00:00 TS 13.7864 -102.303 main 412 412 P________PP___ EP081970 13.7848 -102.308 TD 25 -1 13.7848 -102.308 TC 25 13.7930 -102.284 1 12 280
1970204N14260 1970 69 EP MM IONE-2 1970-07-23 00:00:00 TS 13.9000 -102.900 25 hurdat_epa main 426 426 O________OO___ hurdat_epa EP081970 13.9000 -102.900 TD 25 -1 13.9000 -102.900 TC 25 13.9000 -102.900 1 12 282
1970204N14260 1970 69 EP MM IONE-2 1970-07-23 03:00:00 TS 14.0362 -103.502 main 450 447 P________PP___ EP081970 14.0349 -103.500 TD 25 -1 14.0349 -103.500 TC 25 14.0417 -103.507 1 12 285
1970204N14260 1970 69 EP MM IONE-2 1970-07-23 06:00:00 TS 14.2024 -104.102 25 hurdat_epa main 454 450 O________OP___ hurdat_epa EP081970 14.2000 -104.100 TD 25 -1 14.2000 -104.100 TC 25 14.2118 -104.108 1 12 287
1970204N14260 1970 69 EP MM IONE-2 1970-07-23 09:00:00 TS 14.3941 -104.701 main 454 450 P________PP___ EP081970 14.3924 -104.700 TD 25 -1 14.3924 -104.700 TC 25 14.4010 -104.704 1 12 289
1970204N14260 1970 69 EP MM IONE-2 1970-07-23 12:00:00 TS 14.6000 -105.300 25 hurdat_epa main 456 455 O________OO___ hurdat_epa EP081970 14.6000 -105.300 TD 25 -1 14.6000 -105.300 TC 25 14.6000 -105.300 1 12 289
1970204N14260 1970 69 EP MM IONE-2 1970-07-23 15:00:00 TS 14.8017 -105.906 main 467 467 P________PP___ EP081970 14.7998 -105.900 TD 25 -1 14.7998 -105.900 TC 25 14.8091 -105.928 1 12 289
1970204N14260 1970 69 EP MM IONE-2 1970-07-23 18:00:00 TS 15.0045 -106.510 25 hurdat_epa main 488 487 O________OP___ hurdat_epa EP081970 15.0000 -106.500 TD 25 -1 15.0000 -106.500 TC 25 15.0226 -106.552 1 13 289
1970204N14260 1970 69 EP MM IONE-2 1970-07-23 21:00:00 TS 15.2170 -107.134 main 509 505 P________PP___ EP081970 15.2151 -107.130 TD 25 -1 15.2151 -107.130 TC 25 15.2248 -107.150 1 12 289
1970204N14260 1970 69 EP MM IONE-2 1970-07-24 00:00:00 TS 15.4000 -107.700 25 hurdat_epa main 524 524 O________OO___ hurdat_epa EP081970 15.4000 -107.700 TD 25 -1 15.4000 -107.700 TC 25 15.4000 -107.700 1 10 287
1970204N14260 1970 69 EP MM IONE-2 1970-07-24 03:00:00 TS 15.5149 -108.134 main 542 542 P________PP___ EP081970 15.5147 -108.123 TD 25 -1 15.5147 -108.123 TC 25 15.5158 -108.180 1 8 284
1970204N14260 1970 69 EP MM IONE-2 1970-07-24 06:00:00 TS 15.6013 -108.522 25 hurdat_epa main 562 562 O________OP___ hurdat_epa EP081970 15.6000 -108.500 TD 25 -1 15.6000 -108.500 TC 25 15.6066 -108.611 1 8 283
1970204N14260 1970 69 EP MM IONE-2 1970-07-24 09:00:00 TS 15.6988 -108.962 main 592 592 P________PP___ EP081970 15.7000 -108.950 TD 25 -1 15.7000 -108.950 TC 25 15.6941 -109.011 1 9 283
1970204N14260 1970 69 EP MM IONE-2 1970-07-24 12:00:00 TS 15.8000 -109.400 25 hurdat_epa main 615 615 O________OO___ hurdat_epa EP081970 15.8000 -109.400 TD 25 -1 15.8000 -109.400 TC 25 15.8000 -109.400 2 8 283
1970204N14260 1970 69 EP MM IONE-2 1970-07-24 15:00:00 TS 15.8812 -109.815 main 638 638 P________PP___ EP081970 15.8774 -109.808 TD 35 0 15.8774 -109.808 TC 35 15.8967 -109.844 2 8 285
1970204N14260 1970 69 EP MM IONE-2 1970-07-24 18:00:00 TS 16.0046 -110.215 45 hurdat_epa main 663 663 O________OP___ hurdat_epa EP081970 16.0000 -110.200 TS 45 0 16.0000 -110.200 TC 45 16.0228 -110.275 2 9 292
1970204N14260 1970 69 EP MM IONE-2 1970-07-24 21:00:00 TS 16.1945 -110.638 main 683 683 P________PP___ EP081970 16.1901 -110.630 TS 45 0 16.1901 -110.630 TC 45 16.2124 -110.669 2 9 303
1970204N14260 1970 69 EP MM IONE-2 1970-07-25 00:00:00 TS 16.5000 -111.000 45 hurdat_epa main 700 682 O________OO___ hurdat_epa EP081970 16.5000 -111.000 TS 45 0 16.5000 -111.000 TC 45 16.5000 -111.000 2 10 323
1970204N14260 1970 69 EP MM IONE-2 1970-07-25 03:00:00 TS 16.9519 -111.236 main 671 621 P________PP___ EP081970 16.9549 -111.238 TS 45 0 16.9549 -111.238 TC 45 16.9401 -111.232 2 11 339
1970204N14260 1970 69 EP MM IONE-2 1970-07-25 06:00:00 TS 17.4949 -111.401 45 hurdat_epa main 621 569 O________OP___ hurdat_epa EP081970 17.5000 -111.400 TS 45 0 17.5000 -111.400 TC 45 17.4744 -111.403 2 12 345
1970204N14260 1970 69 EP MM IONE-2 1970-07-25 09:00:00 TS 18.0612 -111.544 main 559 512 P________PP___ EP081970 18.0649 -111.543 TS 45 0 18.0649 -111.543 TC 45 18.0465 -111.548 2 11 346
1970204N14260 1970 69 EP MM IONE-2 1970-07-25 12:00:00 TS 18.6000 -111.700 45 hurdat_epa main 512 478 O________OO___ hurdat_epa EP081970 18.6000 -111.700 TS 45 0 18.6000 -111.700 TC 45 18.6000 -111.700 2 10 339
1970204N14260 1970 69 EP MM IONE-2 1970-07-25 15:00:00 TS 19.0285 -111.940 main 478 452 P________PP___ EP081970 19.0150 -111.943 TS 45 0 19.0150 -111.943 TC 45 19.0823 -111.931 2 10 331
1970204N14260 1970 69 EP MM IONE-2 1970-07-25 18:00:00 TS 19.4265 -112.194 45 hurdat_epa main 452 417 O________OP___ hurdat_epa EP081970 19.4000 -112.200 TS 45 0 19.4000 -112.200 TC 45 19.5326 -112.172 2 10 332
1970204N14260 1970 69 EP MM IONE-2 1970-07-25 21:00:00 TS 19.8863 -112.418 main 417 395 P________PP___ EP081970 19.8725 -112.422 TS 45 0 19.8725 -112.422 TC 45 19.9417 -112.402 2 10 336
1970204N14260 1970 69 EP MM IONE-2 1970-07-26 00:00:00 TS 20.3000 -112.600 45 hurdat_epa main 395 379 O________OO___ hurdat_epa EP081970 20.3000 -112.600 TS 45 0 20.3000 -112.600 TC 45 20.3000 -112.600 6 8 338
1970204N14260 1970 69 EP MM IONE-2 1970-07-26 03:00:00 TS 20.5844 -112.722 main 379 371 P________PP___ EP081970 20.5800 -112.715 TS 42 0 20.5800 -112.715 TC 42 20.6024 -112.748 6 6 339
1970204N14260 1970 69 EP MM IONE-2 1970-07-26 06:00:00 TS 20.8120 -112.811 40 hurdat_epa main 372 365 O________OP___ hurdat_epa EP081970 20.8000 -112.800 TS 40 0 20.8000 -112.800 TC 40 20.8598 -112.855 6 5 340
1970204N14260 1970 69 EP MM IONE-2 1970-07-26 09:00:00 TS 21.0495 -112.903 main 366 354 P________PP___ EP081970 21.0400 -112.895 TS 37 0 21.0400 -112.895 TC 37 21.0874 -112.935 6 5 340
1970204N14260 1970 69 EP MM IONE-2 1970-07-26 12:00:00 TS 21.3000 -113.000 35 hurdat_epa main 357 O________OO___ hurdat_epa EP081970 21.3000 -113.000 TS 35 0 21.3000 -113.000 TC 35 21.3000 -113.000 6 5 341

About IBTrACS Database

This database is a web-friendly format of International Best Track Archive for Climate Stewardship (IBTrACS), a global best track data archive curated by NOAA dating back to 1842.

Updated: 2021-12-08